createdAt,value
2019-05-06T00:01:04.762Z,13.67
2019-05-06T00:03:34.364Z,12.87
2019-05-06T00:06:03.975Z,12.33
2019-05-06T00:08:34.542Z,9.53
2019-05-06T00:11:04.911Z,11.77
2019-05-06T00:13:34.333Z,10.07
2019-05-06T00:16:04.054Z,11.30
2019-05-06T00:18:34.246Z,11.03
2019-05-06T00:21:04.722Z,12.13
2019-05-06T00:23:38.575Z,8.43
2019-05-06T00:26:25.133Z,8.00
2019-05-06T00:28:57.241Z,14.60
2019-05-06T00:31:26.116Z,12.23
2019-05-06T00:33:55.004Z,11.90
2019-05-06T00:36:23.895Z,7.87
2019-05-06T00:38:55.670Z,9.73
2019-05-06T00:41:27.561Z,7.97
2019-05-06T00:43:56.371Z,9.60
2019-05-06T00:46:25.274Z,7.63
2019-05-06T00:48:54.469Z,12.93
2019-05-06T00:51:24.184Z,8.40
2019-05-06T00:54:05.169Z,9.20
2019-05-06T00:56:34.290Z,12.30
2019-05-06T00:59:03.810Z,7.80
2019-05-06T01:01:34.483Z,9.90
2019-05-06T01:04:04.939Z,9.00
2019-05-06T01:06:34.453Z,16.40
2019-05-06T01:09:06.827Z,7.97
2019-05-06T01:11:35.698Z,12.70
2019-05-06T01:14:14.703Z,8.53
2019-05-06T01:16:43.981Z,10.67
2019-05-06T01:19:14.177Z,11.10
2019-05-06T01:21:44.749Z,10.50
2019-05-06T01:24:14.711Z,10.23
2019-05-06T01:26:44.352Z,9.10
2019-05-06T01:29:14.590Z,13.17
2019-05-06T01:31:45.961Z,6.93
2019-05-06T01:34:14.234Z,9.93
2019-05-06T01:36:43.723Z,11.10
2019-05-06T01:39:44.094Z,8.67
2019-05-06T01:42:41.550Z,7.47
2019-05-06T01:45:11.399Z,10.93
2019-05-06T01:47:40.192Z,11.17
2019-05-06T01:50:09.450Z,10.03
2019-05-06T01:52:38.230Z,5.93
2019-05-06T01:55:07.192Z,7.83
2019-05-06T01:57:36.121Z,8.20
2019-05-06T02:00:07.366Z,7.93
2019-05-06T02:02:36.165Z,12.40
2019-05-06T02:05:05.655Z,10.27
2019-05-06T02:07:34.932Z,10.37
2019-05-06T02:10:04.615Z,9.37
2019-05-06T02:12:34.221Z,12.13
2019-05-06T02:15:04.031Z,12.27
2019-05-06T02:17:34.519Z,11.07
2019-05-06T02:20:04.354Z,11.53
2019-05-06T02:23:04.327Z,9.63
2019-05-06T02:25:40.250Z,11.60
2019-05-06T02:28:09.110Z,11.77
2019-05-06T02:30:57.024Z,10.97
2019-05-06T02:33:51.259Z,11.57
2019-05-06T02:36:45.397Z,10.10
2019-05-06T02:39:14.114Z,8.77
2019-05-06T02:41:43.270Z,11.00
2019-05-06T02:44:13.763Z,8.40
2019-05-06T02:46:44.938Z,8.90
2019-05-06T02:49:23.859Z,13.90
2019-05-06T02:51:53.552Z,9.67
2019-05-06T02:54:23.481Z,10.20
2019-05-06T02:56:53.291Z,9.37
2019-05-06T02:59:24.081Z,10.17
2019-05-06T03:01:53.813Z,10.13
2019-05-06T03:04:23.629Z,7.87
2019-05-06T03:06:53.423Z,8.70
2019-05-06T03:09:23.423Z,9.70
2019-05-06T03:11:54.003Z,10.73
2019-05-06T03:14:23.594Z,12.90
2019-05-06T03:16:54.020Z,9.93
2019-05-06T03:19:24.217Z,10.37
2019-05-06T03:22:13.300Z,9.27
2019-05-06T03:24:46.807Z,14.77
2019-05-06T03:27:16.345Z,10.80
2019-05-06T03:29:46.062Z,12.53
2019-05-06T03:32:22.707Z,11.60
2019-05-06T03:35:09.005Z,8.17
2019-05-06T03:37:17.800Z,13.40
2019-05-06T03:39:46.594Z,11.17
2019-05-06T03:42:16.587Z,8.93
2019-05-06T03:44:48.675Z,10.83
2019-05-06T03:47:36.554Z,10.33
2019-05-06T03:50:05.941Z,10.10
2019-05-06T03:52:34.768Z,11.23
2019-05-06T03:55:04.164Z,12.17
2019-05-06T03:57:36.248Z,12.23
2019-05-06T04:00:05.931Z,6.50
2019-05-06T04:02:39.797Z,11.37
2019-05-06T04:05:08.490Z,10.37
2019-05-06T04:07:37.588Z,14.93
2019-05-06T04:10:06.731Z,10.07
2019-05-06T04:12:37.376Z,11.73
2019-05-06T04:15:07.103Z,12.00
2019-05-06T04:17:53.484Z,10.50
2019-05-06T04:20:28.794Z,10.47
2019-05-06T04:23:13.525Z,9.90
2019-05-06T04:26:04.894Z,12.10
2019-05-06T04:28:35.063Z,11.13
2019-05-06T04:31:04.957Z,9.10
2019-05-06T04:33:34.540Z,8.87
2019-05-06T04:36:03.878Z,13.00
2019-05-06T04:38:33.864Z,32.23
2019-05-06T04:41:03.233Z,20.07
2019-05-06T04:43:33.707Z,17.13
2019-05-06T04:46:03.437Z,13.30
2019-05-06T04:48:32.876Z,11.80
2019-05-06T04:51:03.337Z,11.97
2019-05-06T04:53:33.780Z,11.67
2019-05-06T04:56:03.997Z,10.57
2019-05-06T04:58:33.702Z,11.20
2019-05-06T05:01:04.081Z,11.40
2019-05-06T05:03:33.700Z,12.23
2019-05-06T05:06:05.709Z,14.30
2019-05-06T05:08:37.294Z,11.97
2019-05-06T05:11:26.458Z,11.43
2019-05-06T05:14:06.461Z,11.23
2019-05-06T05:16:42.094Z,13.07
2019-05-06T05:19:12.160Z,12.20
2019-05-06T05:21:42.847Z,12.47
2019-05-06T05:24:12.350Z,11.37
2019-05-06T05:26:44.106Z,11.73
2019-05-06T05:29:12.665Z,12.00
2019-05-06T05:31:43.549Z,13.07
2019-05-06T05:34:12.754Z,12.07
2019-05-06T05:36:42.664Z,14.17
2019-05-06T05:39:12.541Z,11.67
2019-05-06T05:41:42.943Z,13.70
2019-05-06T05:44:16.681Z,10.67
2019-05-06T05:46:45.738Z,12.20
2019-05-06T05:49:25.885Z,15.50
2019-05-06T05:51:54.813Z,13.90
2019-05-06T05:54:24.494Z,12.17
2019-05-06T05:56:53.453Z,14.10
2019-05-06T05:59:23.167Z,10.83
2019-05-06T06:01:53.136Z,10.37
2019-05-06T06:04:24.383Z,12.23
2019-05-06T06:06:53.577Z,14.53
2019-05-06T06:09:25.085Z,13.03
2019-05-06T06:11:56.003Z,18.30
2019-05-06T06:14:55.735Z,13.73
2019-05-06T06:17:49.366Z,14.23
2019-05-06T06:20:36.103Z,13.93
2019-05-06T06:23:22.969Z,17.80
2019-05-06T06:25:52.964Z,18.00
2019-05-06T06:28:23.276Z,20.73
2019-05-06T06:31:14.226Z,19.80
2019-05-06T06:33:43.123Z,21.70
2019-05-06T06:36:27.550Z,16.87
2019-05-06T06:39:02.112Z,17.10
2019-05-06T06:41:32.302Z,19.50
2019-05-06T06:44:04.453Z,17.30
2019-05-06T06:46:33.422Z,18.30
2019-05-06T06:49:03.202Z,22.87
2019-05-06T06:51:33.047Z,22.53
2019-05-06T06:54:02.631Z,18.43
2019-05-06T06:56:44.968Z,24.70
2019-05-06T06:59:31.756Z,18.17
2019-05-06T07:02:09.186Z,20.33
2019-05-06T07:04:43.825Z,22.70
2019-05-06T07:07:43.078Z,19.50
2019-05-06T07:10:03.361Z,19.37
2019-05-06T07:12:32.798Z,17.53
2019-05-06T07:15:02.456Z,18.57
2019-05-06T07:17:32.809Z,20.80
2019-05-06T07:20:05.178Z,21.53
2019-05-06T07:22:37.269Z,20.13
2019-05-06T07:25:08.911Z,19.33
2019-05-06T07:27:37.866Z,15.20
2019-05-06T07:30:07.626Z,17.53
2019-05-06T07:32:36.564Z,14.00
2019-05-06T07:35:06.316Z,15.07
2019-05-06T07:37:35.380Z,20.37
2019-05-06T07:40:05.235Z,16.57
2019-05-06T07:42:40.393Z,12.33
2019-05-06T07:45:24.491Z,16.23
2019-05-06T07:47:56.398Z,12.57
2019-05-06T07:50:25.305Z,14.77
2019-05-06T07:53:10.010Z,12.80
2019-05-06T07:55:38.976Z,15.87
2019-05-06T07:58:07.920Z,11.03
2019-05-06T08:00:36.943Z,17.80
2019-05-06T08:03:06.102Z,11.23
2019-05-06T08:05:35.046Z,11.47
2019-05-06T08:08:04.350Z,11.20
2019-05-06T08:10:33.486Z,9.53
2019-05-06T08:13:02.939Z,11.50
2019-05-06T08:15:32.833Z,9.70
2019-05-06T08:18:03.520Z,15.10
2019-05-06T08:20:38.659Z,10.77
2019-05-06T08:23:23.850Z,12.80
2019-05-06T08:26:12.614Z,8.60
2019-05-06T08:28:41.031Z,15.80
2019-05-06T08:31:05.851Z,9.90
2019-05-06T08:33:35.253Z,12.67
2019-05-06T08:36:11.685Z,11.03
2019-05-06T08:39:08.382Z,8.83
2019-05-06T08:41:37.326Z,11.93
2019-05-06T08:44:06.429Z,11.20
2019-05-06T08:46:35.514Z,7.63
2019-05-06T08:49:04.878Z,10.17
2019-05-06T08:51:43.507Z,9.50
2019-05-06T08:54:25.339Z,7.73
2019-05-06T08:56:54.118Z,7.73
2019-05-06T08:59:24.042Z,6.33
2019-05-06T09:01:53.604Z,8.80
2019-05-06T09:04:22.894Z,6.90
2019-05-06T09:06:53.446Z,8.13
2019-05-06T09:09:22.626Z,6.83
2019-05-06T09:11:53.445Z,10.87
2019-05-06T09:14:23.231Z,8.73
2019-05-06T09:16:53.878Z,10.03
2019-05-06T09:19:23.519Z,8.20
2019-05-06T09:21:53.340Z,6.47
2019-05-06T09:24:23.229Z,9.17
2019-05-06T09:27:15.423Z,10.83
2019-05-06T09:29:47.284Z,12.13
2019-05-06T09:32:39.175Z,10.20
2019-05-06T09:35:08.749Z,9.40
2019-05-06T09:37:37.634Z,7.90
2019-05-06T09:40:07.619Z,12.57
2019-05-06T09:42:36.483Z,7.17
2019-05-06T09:45:05.897Z,10.77
2019-05-06T09:47:46.503Z,10.47
2019-05-06T09:50:17.625Z,7.30
2019-05-06T09:52:46.506Z,11.57
2019-05-06T09:55:23.786Z,9.90
2019-05-06T09:58:03.166Z,9.47
2019-05-06T10:00:33.041Z,6.43
2019-05-06T10:03:03.104Z,6.10
2019-05-06T10:05:32.580Z,9.93
2019-05-06T10:08:03.256Z,7.87
2019-05-06T10:10:32.803Z,8.80
2019-05-06T10:13:02.750Z,7.57
2019-05-06T10:15:32.705Z,6.97
2019-05-06T10:18:08.405Z,6.13
2019-05-06T10:20:42.742Z,7.80
2019-05-06T10:23:10.962Z,13.50
2019-05-06T10:25:39.939Z,7.20
2019-05-06T10:28:28.602Z,7.77
2019-05-06T10:30:57.921Z,8.03
2019-05-06T10:33:28.154Z,5.83
2019-05-06T10:36:02.550Z,8.83
2019-05-06T10:38:45.501Z,8.20
2019-05-06T10:41:19.353Z,5.70
2019-05-06T10:43:57.914Z,9.80
2019-05-06T10:46:26.861Z,6.57
2019-05-06T10:48:56.067Z,8.43
2019-05-06T10:51:32.395Z,9.63
2019-05-06T10:54:03.177Z,9.30
2019-05-06T10:57:02.273Z,8.10
2019-05-06T10:59:32.654Z,9.63
2019-05-06T11:02:12.510Z,7.67
2019-05-06T11:04:42.602Z,8.70
2019-05-06T11:07:12.410Z,6.83
2019-05-06T11:09:42.805Z,8.10
2019-05-06T11:12:12.457Z,6.60
2019-05-06T11:14:41.582Z,7.60
2019-05-06T11:17:12.473Z,5.63
2019-05-06T11:19:42.737Z,6.00
2019-05-06T11:22:12.831Z,6.73
2019-05-06T11:24:42.165Z,7.62
2019-05-06T11:27:25.271Z,6.37
2019-05-06T11:29:43.724Z,8.87
2019-05-06T11:32:23.760Z,8.00
2019-05-06T11:35:12.184Z,7.03
2019-05-06T11:37:50.517Z,4.97
2019-05-06T11:40:18.108Z,7.87
2019-05-06T11:42:46.963Z,6.33
2019-05-06T11:45:16.125Z,9.03
2019-05-06T11:47:44.987Z,6.80
2019-05-06T11:50:13.954Z,6.22
2019-05-06T11:52:43.510Z,6.83
2019-05-06T11:55:16.884Z,6.47
2019-05-06T11:57:44.911Z,9.10
2019-05-06T12:00:17.469Z,7.37
2019-05-06T12:02:48.602Z,6.75
2019-05-06T12:05:16.976Z,9.15
2019-05-06T12:08:01.033Z,8.10
2019-05-06T12:10:16.417Z,6.97
2019-05-06T12:12:45.290Z,7.47
2019-05-06T12:15:14.348Z,6.17
2019-05-06T12:17:43.134Z,7.03
2019-05-06T12:20:13.096Z,6.57
2019-05-06T12:22:42.444Z,10.85
2019-05-06T12:25:15.290Z,8.73
2019-05-06T12:27:45.459Z,6.80
2019-05-06T12:30:23.206Z,7.53
2019-05-06T12:33:13.061Z,8.05
2019-05-06T12:35:45.586Z,6.85
2019-05-06T12:38:27.524Z,6.47
2019-05-06T12:40:49.604Z,10.55
2019-05-06T12:43:36.988Z,7.23
2019-05-06T12:46:17.337Z,9.87
2019-05-06T12:48:46.217Z,6.65
2019-05-06T12:51:15.006Z,6.87
2019-05-06T12:53:43.921Z,6.70
2019-05-06T12:56:12.727Z,7.17
2019-05-06T12:58:43.994Z,6.63
2019-05-06T13:01:13.693Z,7.60
2019-05-06T13:03:53.191Z,8.93
2019-05-06T13:06:26.343Z,9.40
2019-05-06T13:09:01.355Z,7.22
2019-05-06T13:11:24.879Z,8.55
2019-05-06T13:14:00.255Z,11.63
2019-05-06T13:16:24.217Z,10.67
2019-05-06T13:18:54.955Z,7.93
2019-05-06T13:21:23.602Z,8.57
2019-05-06T13:23:56.606Z,9.57
2019-05-06T13:26:26.132Z,11.12
2019-05-06T13:28:59.055Z,10.23
2019-05-06T13:31:32.456Z,8.30
2019-05-06T13:34:05.095Z,7.97
2019-05-06T13:36:34.183Z,9.90
2019-05-06T13:39:14.010Z,8.00
2019-05-06T13:41:34.273Z,8.60
2019-05-06T13:44:13.138Z,8.70
2019-05-06T13:46:52.586Z,8.93
2019-05-06T13:49:39.042Z,12.30
2019-05-06T13:52:13.698Z,8.50
2019-05-06T13:54:42.666Z,11.20
2019-05-06T13:57:12.446Z,11.03
2019-05-06T13:59:44.158Z,13.00
2019-05-06T14:02:47.743Z,9.37
2019-05-06T14:05:17.453Z,14.67
2019-05-06T14:07:46.434Z,11.57
2019-05-06T14:10:15.466Z,11.23
2019-05-06T14:12:44.489Z,12.13
2019-05-06T14:15:13.922Z,14.47
2019-05-06T14:17:42.809Z,16.87
2019-05-06T14:20:13.346Z,17.20
2019-05-06T14:22:43.768Z,26.03
2019-05-06T14:25:26.107Z,23.17
2019-05-06T14:27:58.538Z,13.67
2019-05-06T14:30:45.172Z,13.60
2019-05-06T14:33:16.003Z,14.23
2019-05-06T14:35:44.963Z,11.77
2019-05-06T14:38:13.835Z,14.37
2019-05-06T14:41:04.365Z,18.03
2019-05-06T14:43:32.509Z,11.80
2019-05-06T14:46:01.546Z,15.07
2019-05-06T14:48:32.916Z,14.70
2019-05-06T14:51:02.284Z,12.17
2019-05-06T14:53:33.132Z,11.17
2019-05-06T14:56:07.502Z,13.13
2019-05-06T14:58:36.421Z,11.17
2019-05-06T15:01:05.377Z,12.83
2019-05-06T15:03:34.352Z,16.70
2019-05-06T15:06:03.237Z,10.63
2019-05-06T15:08:32.356Z,10.83
2019-05-06T15:11:03.105Z,11.70
2019-05-06T15:13:32.335Z,14.13
2019-05-06T15:16:03.437Z,11.50
2019-05-06T15:18:32.243Z,14.00
2019-05-06T15:21:28.729Z,10.07
2019-05-06T15:23:31.690Z,11.53
2019-05-06T15:26:02.924Z,10.47
2019-05-06T15:28:33.597Z,12.37
2019-05-06T15:31:08.764Z,10.37
2019-05-06T15:33:40.446Z,11.03
2019-05-06T15:36:16.373Z,12.10
2019-05-06T15:38:45.666Z,12.20
2019-05-06T15:41:15.105Z,11.27
2019-05-06T15:43:43.925Z,11.67
2019-05-06T15:46:12.987Z,10.43
2019-05-06T15:48:42.183Z,11.60
2019-05-06T15:51:12.256Z,13.17
2019-05-06T15:53:42.161Z,11.23
2019-05-06T15:56:12.271Z,8.87
2019-05-06T15:58:42.303Z,9.90
2019-05-06T16:01:11.346Z,11.17
2019-05-06T16:03:42.894Z,8.67
2019-05-06T16:06:12.441Z,11.10
2019-05-06T16:08:42.766Z,9.60
2019-05-06T16:11:12.554Z,10.13
2019-05-06T16:13:42.559Z,10.10
2019-05-06T16:16:12.061Z,9.57
2019-05-06T16:18:42.304Z,12.43
2019-05-06T16:21:11.407Z,13.13
2019-05-06T16:23:44.882Z,11.37
2019-05-06T16:26:13.674Z,11.63
2019-05-06T16:28:45.025Z,11.97
2019-05-06T16:31:13.089Z,10.87
2019-05-06T16:33:43.082Z,14.80
2019-05-06T16:36:13.160Z,9.97
2019-05-06T16:38:42.836Z,9.10
2019-05-06T16:41:15.668Z,10.60
2019-05-06T16:43:42.764Z,13.77
2019-05-06T16:46:12.652Z,13.17
2019-05-06T16:48:45.005Z,12.00
2019-05-06T16:51:12.627Z,11.87
2019-05-06T16:53:42.949Z,12.30
2019-05-06T16:56:18.308Z,8.30
2019-05-06T16:58:53.898Z,12.27
2019-05-06T17:01:22.782Z,9.93
2019-05-06T17:04:14.572Z,10.80
2019-05-06T17:06:44.026Z,10.47
2019-05-06T17:09:20.753Z,12.43
2019-05-06T17:11:43.395Z,10.87
2019-05-06T17:14:12.438Z,11.07
2019-05-06T17:16:42.358Z,13.30
2019-05-06T17:19:12.699Z,10.03
2019-05-06T17:21:42.434Z,16.87
2019-05-06T17:24:13.037Z,12.90
2019-05-06T17:26:42.794Z,10.00
2019-05-06T17:29:22.696Z,13.20
2019-05-06T17:32:21.667Z,15.33
2019-05-06T17:34:52.776Z,14.23
2019-05-06T17:37:41.976Z,11.37
2019-05-06T17:40:14.030Z,16.57
2019-05-06T17:42:43.094Z,16.40
2019-05-06T17:45:32.204Z,14.23
2019-05-06T17:48:07.214Z,14.73
2019-05-06T17:51:15.566Z,13.73
2019-05-06T17:53:47.453Z,34.90
2019-05-06T17:56:16.432Z,22.17
2019-05-06T17:58:45.385Z,20.57
2019-05-06T18:01:16.619Z,18.00
2019-05-06T18:03:45.708Z,15.90
2019-05-06T18:06:14.629Z,13.17
2019-05-06T18:08:43.602Z,15.20
2019-05-06T18:11:13.061Z,14.97
2019-05-06T18:13:42.162Z,14.20
2019-05-06T18:16:12.962Z,15.80
2019-05-06T18:18:41.734Z,14.73
2019-05-06T18:21:12.347Z,15.13
2019-05-06T18:23:41.409Z,15.97
2019-05-06T18:26:10.470Z,13.60
2019-05-06T18:28:39.273Z,15.80
2019-05-06T18:31:08.109Z,19.30
2019-05-06T18:33:37.008Z,17.67
2019-05-06T18:36:06.425Z,16.33
2019-05-06T18:38:35.430Z,16.10
2019-05-06T18:41:04.290Z,16.90
2019-05-06T18:43:33.548Z,18.27
2019-05-06T18:46:02.918Z,17.10
2019-05-06T18:48:35.087Z,18.50
2019-05-06T18:51:03.155Z,19.80
2019-05-06T18:53:33.291Z,19.20
2019-05-06T18:56:03.217Z,21.27
2019-05-06T18:58:32.718Z,25.03
2019-05-06T19:01:03.869Z,19.50
2019-05-06T19:03:42.945Z,19.60
2019-05-06T19:06:11.959Z,19.73
2019-05-06T19:08:59.966Z,19.60
2019-05-06T19:11:29.213Z,24.80
2019-05-06T19:13:58.041Z,17.77
2019-05-06T19:16:26.857Z,21.77
2019-05-06T19:18:55.857Z,18.40
2019-05-06T19:21:24.986Z,20.90
2019-05-06T19:23:54.827Z,19.73
2019-05-06T19:26:23.918Z,20.30
2019-05-06T19:28:52.793Z,22.77
2019-05-06T19:31:22.814Z,22.03
2019-05-06T19:33:52.631Z,19.63
2019-05-06T19:36:23.530Z,18.87
2019-05-06T19:38:52.306Z,21.50
2019-05-06T19:41:22.361Z,21.23
2019-05-06T19:43:52.425Z,17.97
2019-05-06T19:46:21.555Z,19.67
2019-05-06T19:48:52.362Z,25.30
2019-05-06T19:51:22.544Z,16.97
2019-05-06T19:53:51.562Z,17.13
2019-05-06T19:56:20.359Z,21.77
2019-05-06T19:58:49.159Z,18.13
2019-05-06T20:01:18.111Z,21.17
2019-05-06T20:03:47.178Z,18.77
2019-05-06T20:06:35.038Z,20.57
2019-05-06T20:09:23.982Z,19.87
2019-05-06T20:11:55.313Z,17.27
2019-05-06T20:14:24.091Z,17.07
2019-05-06T20:16:53.061Z,17.67
2019-05-06T20:19:30.846Z,22.40
2019-05-06T20:21:52.790Z,21.03
2019-05-06T20:24:22.584Z,16.87
2019-05-06T20:26:52.749Z,22.60
2019-05-06T20:29:22.428Z,18.73
2019-05-06T20:31:53.485Z,21.10
2019-05-06T20:34:22.530Z,19.80
2019-05-06T20:36:52.833Z,22.07
2019-05-06T20:39:22.991Z,21.07
2019-05-06T20:41:51.970Z,18.47
2019-05-06T20:44:22.893Z,24.10
2019-05-06T20:46:52.704Z,19.93
2019-05-06T20:49:21.671Z,19.03
2019-05-06T20:52:09.738Z,18.63
2019-05-06T20:54:38.891Z,21.93
2019-05-06T20:57:07.680Z,18.70
2019-05-06T20:59:36.539Z,21.07
2019-05-06T21:02:05.385Z,19.23
2019-05-06T21:04:34.266Z,18.33
2019-05-06T21:07:03.146Z,21.10
2019-05-06T21:09:32.139Z,17.00
2019-05-06T21:12:01.139Z,19.43
2019-05-06T21:14:32.226Z,16.23
2019-05-06T21:17:02.509Z,17.00
2019-05-06T21:19:32.947Z,19.23
2019-05-06T21:22:02.302Z,19.37
2019-05-06T21:24:32.507Z,18.10
2019-05-06T21:27:02.784Z,20.17
2019-05-06T21:29:32.453Z,19.33
2019-05-06T21:32:02.726Z,18.93
2019-05-06T21:34:32.811Z,19.07
2019-05-06T21:37:03.087Z,19.53
2019-05-06T21:39:32.775Z,24.60
2019-05-06T21:42:01.873Z,20.00
2019-05-06T21:44:32.471Z,24.03
2019-05-06T21:47:02.914Z,21.60
2019-05-06T21:49:32.783Z,21.37
2019-05-06T21:52:02.257Z,21.33
2019-05-06T21:54:32.746Z,23.17
2019-05-06T21:57:02.919Z,20.73
2019-05-06T21:59:31.938Z,20.73
2019-05-06T22:02:00.866Z,22.63
2019-05-06T22:04:29.672Z,21.83
2019-05-06T22:06:58.528Z,20.63
2019-05-06T22:09:27.388Z,21.57
2019-05-06T22:11:56.273Z,22.70
2019-05-06T22:14:25.131Z,21.73
2019-05-06T22:16:54.006Z,21.00
2019-05-06T22:19:22.793Z,24.87
2019-05-06T22:22:03.471Z,21.57
2019-05-06T22:24:44.291Z,20.70
2019-05-06T22:27:13.219Z,24.13
2019-05-06T22:29:42.678Z,22.70
2019-05-06T22:32:14.834Z,21.40
2019-05-06T22:34:42.708Z,22.73
2019-05-06T22:37:12.558Z,23.10
2019-05-06T22:39:43.511Z,25.37
2019-05-06T22:42:12.633Z,25.33
2019-05-06T22:44:42.918Z,20.53
2019-05-06T22:47:12.270Z,21.83
2019-05-06T22:49:41.158Z,23.60
2019-05-06T22:52:09.945Z,24.73
2019-05-06T22:54:38.721Z,22.03
2019-05-06T22:57:07.514Z,23.30
2019-05-06T22:59:36.536Z,26.13
2019-05-06T23:02:23.016Z,24.13
2019-05-06T23:04:55.157Z,24.23
2019-05-06T23:07:24.325Z,26.10
2019-05-06T23:09:53.261Z,24.67
2019-05-06T23:12:23.152Z,28.07
2019-05-06T23:14:52.808Z,26.90
2019-05-06T23:17:21.859Z,19.03
2019-05-06T23:19:52.724Z,22.07
2019-05-06T23:22:22.758Z,19.60
2019-05-06T23:24:54.024Z,25.20
2019-05-06T23:27:23.242Z,28.60
2019-05-06T23:29:52.610Z,24.57
2019-05-06T23:32:22.951Z,21.37
2019-05-06T23:34:52.435Z,21.80
2019-05-06T23:37:22.748Z,19.97
2019-05-06T23:40:52.551Z,28.50
2019-05-06T23:43:57.261Z,40.40
2019-05-06T23:47:04.675Z,24.57
2019-05-06T23:50:09.731Z,38.43
2019-05-06T23:53:15.014Z,34.23
2019-05-06T23:56:20.656Z,25.20
2019-05-06T23:58:49.448Z,22.60
